createdAt,value
2023-04-28T00:01:17.968Z,12.10
2023-04-28T00:04:21.978Z,11.20
2023-04-28T00:07:25.379Z,12.20
2023-04-28T00:10:28.939Z,12.43
2023-04-28T00:13:31.958Z,11.83
2023-04-28T00:16:36.799Z,11.90
2023-04-28T00:19:40.201Z,11.30
2023-04-28T00:22:43.300Z,11.83
2023-04-28T00:25:46.528Z,11.10
2023-04-28T00:28:49.687Z,11.70
2023-04-28T00:31:54.087Z,11.90
2023-04-28T00:34:58.536Z,11.10
2023-04-28T00:38:01.686Z,10.40
2023-04-28T00:41:05.722Z,11.87
2023-04-28T00:44:08.812Z,11.20
2023-04-28T00:47:13.686Z,11.27
2023-04-28T00:50:18.519Z,11.03
2023-04-28T00:53:22.222Z,11.60
2023-04-28T00:56:27.478Z,11.37
2023-04-28T00:59:31.124Z,10.70
2023-04-28T01:02:37.323Z,10.50
2023-04-28T01:05:44.072Z,12.03
2023-04-28T01:08:50.884Z,10.53
2023-04-28T01:11:55.617Z,10.60
2023-04-28T01:15:19.256Z,10.20
2023-04-28T01:18:25.709Z,10.23
2023-04-28T01:21:30.411Z,11.10
2023-04-28T01:24:35.089Z,9.87
2023-04-28T01:27:41.521Z,10.47
2023-04-28T01:30:44.972Z,10.60
2023-04-28T01:33:48.271Z,10.30
2023-04-28T01:36:52.815Z,9.80
2023-04-28T01:39:57.355Z,9.47
2023-04-28T01:43:01.397Z,9.00
2023-04-28T01:46:06.745Z,8.63
2023-04-28T01:49:09.871Z,8.87
2023-04-28T01:52:12.926Z,9.63
2023-04-28T01:55:17.554Z,9.50
2023-04-28T01:58:21.677Z,9.17
2023-04-28T02:01:24.884Z,8.73
2023-04-28T02:04:28.312Z,9.07
2023-04-28T02:07:31.671Z,8.73
2023-04-28T02:10:36.066Z,8.70
2023-04-28T02:13:39.288Z,9.73
2023-04-28T02:16:42.352Z,8.40
2023-04-28T02:19:47.598Z,8.40
2023-04-28T02:22:50.649Z,8.40
2023-04-28T02:26:03.668Z,8.50
2023-04-28T02:29:06.692Z,8.57
2023-04-28T02:32:09.740Z,8.37
2023-04-28T02:35:13.327Z,9.47
2023-04-28T02:38:16.332Z,9.63
2023-04-28T02:41:20.828Z,7.43
2023-04-28T02:44:24.057Z,8.53
2023-04-28T02:47:27.268Z,7.67
2023-04-28T02:50:30.739Z,8.30
2023-04-28T02:53:33.815Z,8.13
2023-04-28T02:56:40.821Z,7.90
2023-04-28T02:59:43.902Z,7.33
2023-04-28T03:02:47.038Z,7.70
2023-04-28T03:05:52.685Z,8.73
2023-04-28T03:09:02.308Z,7.80
2023-04-28T03:12:09.722Z,7.30
2023-04-28T03:15:14.874Z,7.50
2023-04-28T03:18:18.709Z,8.33
2023-04-28T03:21:21.816Z,8.70
2023-04-28T03:24:24.973Z,7.43
2023-04-28T03:27:29.723Z,7.87
2023-04-28T03:30:33.566Z,7.47
2023-04-28T03:33:36.664Z,7.30
2023-04-28T03:36:39.853Z,7.73
2023-04-28T03:39:50.525Z,8.30
2023-04-28T03:42:54.912Z,7.00
2023-04-28T03:46:06.030Z,7.60
2023-04-28T03:49:10.111Z,7.53
2023-04-28T03:52:13.265Z,7.60
2023-04-28T03:55:16.697Z,8.07
2023-04-28T03:58:21.257Z,7.43
2023-04-28T04:01:26.296Z,8.13
2023-04-28T04:04:29.743Z,8.43
2023-04-28T04:07:33.667Z,8.23
2023-04-28T04:10:36.862Z,8.27
2023-04-28T04:13:41.405Z,8.03
2023-04-28T04:16:48.736Z,7.77
2023-04-28T04:19:52.069Z,7.50
2023-04-28T04:22:55.118Z,8.40
2023-04-28T04:25:58.333Z,8.77
2023-04-28T04:29:04.412Z,8.80
2023-04-28T04:32:09.213Z,7.77
2023-04-28T04:35:12.528Z,8.17
2023-04-28T04:38:19.371Z,8.23
2023-04-28T04:41:22.971Z,8.67
2023-04-28T04:44:33.293Z,8.57
2023-04-28T04:47:37.548Z,7.73
2023-04-28T04:50:42.377Z,8.00
2023-04-28T04:53:45.694Z,7.70
2023-04-28T04:56:48.861Z,7.97
2023-04-28T05:00:02.235Z,7.13
2023-04-28T05:03:07.816Z,7.30
2023-04-28T05:06:13.567Z,6.83
2023-04-28T05:09:20.345Z,7.00
2023-04-28T05:12:23.368Z,7.93
2023-04-28T05:15:27.816Z,6.97
2023-04-28T05:18:49.629Z,8.20
2023-04-28T05:21:54.701Z,8.60
2023-04-28T05:24:58.268Z,8.10
2023-04-28T05:28:04.842Z,7.67
2023-04-28T05:31:12.482Z,7.40
2023-04-28T05:34:15.901Z,7.67
2023-04-28T05:37:19.322Z,6.50
2023-04-28T05:40:27.470Z,7.37
2023-04-28T05:43:31.424Z,7.40
2023-04-28T05:46:37.671Z,7.53
2023-04-28T05:49:40.932Z,7.03
2023-04-28T05:52:45.676Z,7.93
2023-04-28T05:55:49.872Z,8.70
2023-04-28T05:58:53.322Z,8.03
2023-04-28T06:01:58.605Z,7.53
2023-04-28T06:05:02.055Z,8.70
2023-04-28T06:08:07.800Z,8.40
2023-04-28T06:11:10.832Z,8.00
2023-04-28T06:14:15.943Z,8.00
2023-04-28T06:17:23.428Z,8.77
2023-04-28T06:20:26.571Z,7.77
2023-04-28T06:23:31.358Z,8.67
2023-04-28T06:26:34.669Z,8.20
2023-04-28T06:29:37.881Z,6.83
2023-04-28T06:32:42.340Z,6.87
2023-04-28T06:35:45.457Z,6.67
2023-04-28T06:38:51.456Z,7.37
2023-04-28T06:41:54.763Z,6.93
2023-04-28T06:44:59.127Z,6.97
2023-04-28T06:48:06.973Z,5.80
2023-04-28T06:51:13.776Z,5.90
2023-04-28T06:54:17.516Z,5.83
2023-04-28T06:57:21.075Z,5.83
2023-04-28T07:00:26.004Z,5.60
2023-04-28T07:03:30.537Z,5.33
2023-04-28T07:06:33.711Z,4.93
2023-04-28T07:09:36.851Z,4.90
2023-04-28T07:12:40.981Z,5.27
2023-04-28T07:15:44.107Z,5.63
2023-04-28T07:18:48.460Z,6.00
2023-04-28T07:21:52.311Z,5.83
2023-04-28T07:24:55.761Z,7.33
2023-04-28T07:27:58.941Z,5.60
2023-04-28T07:31:02.410Z,5.90
2023-04-28T07:34:07.224Z,5.63
2023-04-28T07:37:11.918Z,6.10
2023-04-28T07:40:15.039Z,5.20
2023-04-28T07:43:18.335Z,6.03
2023-04-28T07:46:22.253Z,6.07
2023-04-28T07:49:26.724Z,5.90
2023-04-28T07:52:30.004Z,5.73
2023-04-28T07:55:33.026Z,6.03
2023-04-28T07:58:37.152Z,6.00
2023-04-28T08:01:40.283Z,5.83
2023-04-28T08:04:45.052Z,6.17
2023-04-28T08:07:48.392Z,6.67
2023-04-28T08:10:52.371Z,5.60
2023-04-28T08:13:56.790Z,6.17
2023-04-28T08:16:59.888Z,5.93
2023-04-28T08:20:05.823Z,5.90
2023-04-28T08:23:09.306Z,5.70
2023-04-28T08:26:12.846Z,5.93
2023-04-28T08:29:16.005Z,5.77
2023-04-28T08:32:19.340Z,5.33
2023-04-28T08:35:23.861Z,5.70
2023-04-28T08:38:28.660Z,5.93
2023-04-28T08:41:34.124Z,5.50
2023-04-28T08:44:39.583Z,5.83
2023-04-28T08:47:46.115Z,6.17
2023-04-28T08:50:53.740Z,6.27
2023-04-28T08:54:18.893Z,5.63
2023-04-28T08:57:22.765Z,5.57
2023-04-28T09:00:26.048Z,5.67
2023-04-28T09:03:29.278Z,7.07
2023-04-28T09:06:38.430Z,5.60
2023-04-28T09:09:45.612Z,5.53
2023-04-28T09:12:53.083Z,5.83
2023-04-28T09:16:01.726Z,6.07
2023-04-28T09:19:05.348Z,6.47
2023-04-28T09:22:24.837Z,7.00
2023-04-28T09:25:28.966Z,7.60
2023-04-28T09:28:32.595Z,6.63
2023-04-28T09:31:40.640Z,7.37
2023-04-28T09:34:46.456Z,6.70
2023-04-28T09:37:59.782Z,7.17
2023-04-28T09:41:04.699Z,6.20
2023-04-28T09:44:17.421Z,6.13
2023-04-28T09:47:22.484Z,6.50
2023-04-28T09:50:25.571Z,6.20
2023-04-28T09:53:31.490Z,6.33
2023-04-28T09:56:41.027Z,6.03
2023-04-28T09:59:50.561Z,6.30
2023-04-28T10:02:54.309Z,6.25
2023-04-28T10:05:58.770Z,6.43
2023-04-28T10:09:08.638Z,6.43
2023-04-28T10:12:15.599Z,6.43
2023-04-28T10:15:21.862Z,6.77
2023-04-28T10:18:27.489Z,6.30
2023-04-28T10:21:34.547Z,6.97
2023-04-28T10:25:00.653Z,6.13
2023-04-28T10:28:09.396Z,6.25
2023-04-28T10:31:16.614Z,5.57
2023-04-28T10:34:24.495Z,6.13
2023-04-28T10:38:05.161Z,6.72
2023-04-28T10:41:33.020Z,6.32
2023-04-28T10:44:45.671Z,5.82
2023-04-28T10:48:12.934Z,6.10
2023-04-28T10:51:33.156Z,6.68
2023-04-28T10:54:36.465Z,5.25
2023-04-28T10:57:41.644Z,5.60
2023-04-28T11:00:47.677Z,7.53
2023-04-28T11:03:54.273Z,5.93
2023-04-28T11:07:13.844Z,5.78
2023-04-28T11:10:17.409Z,5.85
2023-04-28T11:13:28.436Z,6.13
2023-04-28T11:16:33.351Z,6.18
2023-04-28T11:19:39.001Z,5.75
2023-04-28T11:22:42.780Z,6.97
2023-04-28T11:25:55.761Z,6.40
2023-04-28T11:29:00.108Z,7.40
2023-04-28T11:32:03.726Z,6.45
2023-04-28T11:35:10.242Z,6.60
2023-04-28T11:38:13.502Z,6.13
2023-04-28T11:41:16.985Z,6.30
2023-04-28T11:44:24.110Z,6.65
2023-04-28T11:47:32.760Z,6.45
2023-04-28T11:50:39.292Z,6.93
2023-04-28T11:53:43.916Z,7.00
2023-04-28T11:56:47.095Z,6.93
2023-04-28T11:59:51.973Z,6.07
2023-04-28T12:02:55.160Z,6.60
2023-04-28T12:05:59.098Z,7.13
2023-04-28T12:09:04.586Z,7.50
2023-04-28T12:12:11.856Z,7.35
2023-04-28T12:15:17.514Z,6.95
2023-04-28T12:18:24.065Z,6.90
2023-04-28T12:21:30.292Z,7.13
2023-04-28T12:24:35.612Z,7.10
2023-04-28T12:27:40.625Z,7.35
2023-04-28T12:30:45.608Z,7.18
2023-04-28T12:33:48.704Z,7.80
2023-04-28T12:36:52.966Z,6.95
2023-04-28T12:39:55.970Z,7.88
2023-04-28T12:42:59.598Z,7.53
2023-04-28T12:46:04.546Z,7.05
2023-04-28T12:49:07.676Z,7.30
2023-04-28T12:52:11.287Z,7.25
2023-04-28T12:55:14.317Z,6.00
2023-04-28T12:58:17.907Z,6.43
2023-04-28T13:01:22.283Z,7.82
2023-04-28T13:04:25.576Z,6.18
2023-04-28T13:07:30.272Z,7.15
2023-04-28T13:10:33.372Z,6.75
2023-04-28T13:13:37.471Z,6.88
2023-04-28T13:16:42.114Z,6.25
2023-04-28T13:19:45.673Z,6.75
2023-04-28T13:22:48.956Z,5.85
2023-04-28T13:25:52.792Z,6.45
2023-04-28T13:28:56.216Z,6.47
2023-04-28T13:32:00.714Z,6.25
2023-04-28T13:35:03.821Z,6.22
2023-04-28T13:38:09.304Z,6.28
2023-04-28T13:41:12.283Z,6.63
2023-04-28T13:44:15.535Z,7.40
2023-04-28T13:47:19.958Z,6.13
2023-04-28T13:50:23.015Z,5.78
2023-04-28T13:53:26.068Z,6.70
2023-04-28T13:56:29.151Z,6.38
2023-04-28T13:59:32.950Z,7.05
2023-04-28T14:02:52.504Z,7.07
2023-04-28T14:05:57.671Z,6.88
2023-04-28T14:09:01.190Z,6.75
2023-04-28T14:12:04.578Z,7.38
2023-04-28T14:15:09.439Z,6.95
2023-04-28T14:18:14.739Z,6.38
2023-04-28T14:21:18.125Z,6.97
2023-04-28T14:24:21.250Z,6.45
2023-04-28T14:27:24.325Z,6.50
2023-04-28T14:30:27.771Z,6.68
2023-04-28T14:33:32.143Z,6.88
2023-04-28T14:36:38.425Z,6.65
2023-04-28T14:39:43.042Z,7.00
2023-04-28T14:42:47.260Z,6.68
2023-04-28T14:45:50.718Z,6.30
2023-04-28T14:48:55.158Z,6.43
2023-04-28T14:52:00.005Z,6.60
2023-04-28T14:55:05.596Z,6.57
2023-04-28T14:58:08.984Z,6.18
2023-04-28T15:01:12.156Z,7.22
2023-04-28T15:04:17.402Z,7.13
2023-04-28T15:07:20.989Z,6.28
2023-04-28T15:10:24.115Z,6.00
2023-04-28T15:13:30.296Z,6.10
2023-04-28T15:16:33.711Z,6.20
2023-04-28T15:19:38.182Z,6.18
2023-04-28T15:22:44.403Z,5.78
2023-04-28T15:25:50.110Z,6.70
2023-04-28T15:28:53.288Z,6.30
2023-04-28T15:31:58.017Z,6.32
2023-04-28T15:35:02.903Z,6.95
2023-04-28T15:38:06.898Z,7.28
2023-04-28T15:41:10.730Z,6.20
2023-04-28T15:44:13.953Z,6.07
2023-04-28T15:47:17.278Z,6.57
2023-04-28T15:50:22.194Z,7.75
2023-04-28T15:53:25.911Z,6.72
2023-04-28T15:56:30.990Z,7.10
2023-04-28T15:59:35.506Z,6.80
2023-04-28T16:02:39.855Z,6.97
2023-04-28T16:05:45.591Z,6.70
2023-04-28T16:08:48.649Z,7.53
2023-04-28T16:11:51.994Z,7.50
2023-04-28T16:14:56.072Z,8.13
2023-04-28T16:17:59.304Z,7.70
2023-04-28T16:21:03.734Z,7.82
2023-04-28T16:24:08.169Z,7.60
2023-04-28T16:27:12.499Z,8.23
2023-04-28T16:30:18.619Z,7.97
2023-04-28T16:33:21.779Z,9.17
2023-04-28T16:36:29.783Z,9.10
2023-04-28T16:39:33.570Z,8.87
2023-04-28T16:42:36.909Z,8.60
2023-04-28T16:45:40.119Z,9.23
2023-04-28T16:48:44.121Z,9.57
2023-04-28T16:51:58.850Z,10.43
2023-04-28T16:55:02.441Z,11.27
2023-04-28T16:58:07.057Z,11.33
2023-04-28T17:01:11.567Z,10.20
2023-04-28T17:04:18.010Z,10.63
2023-04-28T17:07:24.177Z,10.43
2023-04-28T17:10:28.739Z,9.60
2023-04-28T17:13:33.406Z,9.37
2023-04-28T17:16:37.089Z,10.53
2023-04-28T17:19:41.654Z,11.17
2023-04-28T17:22:46.070Z,17.57
2023-04-28T17:25:49.187Z,14.90
2023-04-28T17:28:52.907Z,17.30
2023-04-28T17:31:56.291Z,18.10
2023-04-28T17:34:59.296Z,14.70
2023-04-28T17:38:03.592Z,10.10
2023-04-28T17:41:06.687Z,10.77
2023-04-28T17:44:10.225Z,12.00
2023-04-28T17:47:15.112Z,11.47
2023-04-28T17:50:19.752Z,10.73
2023-04-28T17:53:24.351Z,10.07
2023-04-28T17:56:29.517Z,11.33
2023-04-28T17:59:32.923Z,10.03
2023-04-28T18:02:36.218Z,11.40
2023-04-28T18:05:39.282Z,11.70
2023-04-28T18:08:44.649Z,11.00
2023-04-28T18:11:47.713Z,12.50
2023-04-28T18:14:51.641Z,10.97
2023-04-28T18:17:54.838Z,10.30
2023-04-28T18:21:02.640Z,10.67
2023-04-28T18:24:08.570Z,10.87
2023-04-28T18:27:11.577Z,9.90
2023-04-28T18:30:14.809Z,10.87
2023-04-28T18:37:09.444Z,10.80
2023-04-28T18:40:14.669Z,14.57
2023-04-28T18:43:17.831Z,15.33
2023-04-28T18:46:20.934Z,13.30
2023-04-28T18:49:32.331Z,13.77
2023-04-28T18:52:38.371Z,12.30
2023-04-28T18:55:42.826Z,13.03
2023-04-28T18:58:47.247Z,11.13
2023-04-28T19:01:50.335Z,12.10
2023-04-28T19:04:53.775Z,11.37
2023-04-28T19:07:56.929Z,12.40
2023-04-28T19:11:02.061Z,11.90
2023-04-28T19:14:05.286Z,12.70
2023-04-28T19:17:08.849Z,11.03
2023-04-28T19:20:16.956Z,11.60
2023-04-28T19:23:24.318Z,11.50
2023-04-28T19:26:31.327Z,11.13
2023-04-28T19:29:35.070Z,12.53
2023-04-28T19:32:39.495Z,12.43
2023-04-28T19:35:43.717Z,11.40
2023-04-28T19:38:48.008Z,11.93
2023-04-28T19:41:54.638Z,14.20
2023-04-28T19:45:16.166Z,15.43
2023-04-28T19:48:21.104Z,16.87
2023-04-28T19:51:24.325Z,13.83
2023-04-28T19:54:29.071Z,15.27
2023-04-28T19:57:49.365Z,11.93
2023-04-28T20:01:30.378Z,13.77
2023-04-28T20:04:34.150Z,13.20
2023-04-28T20:07:40.892Z,12.60
2023-04-28T20:10:47.035Z,11.73
2023-04-28T20:13:58.659Z,10.73
2023-04-28T20:17:35.002Z,10.53
2023-04-28T20:20:43.851Z,10.93
2023-04-28T20:23:47.203Z,11.40
2023-04-28T20:26:51.417Z,10.20
2023-04-28T20:29:56.287Z,10.97
2023-04-28T20:33:01.437Z,10.50
2023-04-28T20:36:05.751Z,10.80
2023-04-28T20:39:11.176Z,10.53
2023-04-28T20:42:14.649Z,10.53
2023-04-28T20:45:19.374Z,10.37
2023-04-28T20:48:22.434Z,9.80
2023-04-28T20:51:25.497Z,11.77
2023-04-28T20:54:32.646Z,11.07
2023-04-28T20:57:35.696Z,10.63
2023-04-28T21:00:41.044Z,10.93
2023-04-28T21:03:44.185Z,11.07
2023-04-28T21:06:54.392Z,10.70
2023-04-28T21:10:02.881Z,10.00
2023-04-28T21:13:10.186Z,9.43
2023-04-28T21:16:21.957Z,10.53
2023-04-28T21:19:31.904Z,11.00
2023-04-28T21:22:35.827Z,10.03
2023-04-28T21:25:40.040Z,9.73
2023-04-28T21:28:43.755Z,8.87
2023-04-28T21:31:49.626Z,9.63
2023-04-28T21:34:52.764Z,10.47
2023-04-28T21:37:55.899Z,10.27
2023-04-28T21:40:59.353Z,9.00
2023-04-28T21:44:02.315Z,9.47
2023-04-28T21:47:08.907Z,9.67
2023-04-28T21:50:14.423Z,9.97
2023-04-28T21:53:17.779Z,10.80
2023-04-28T21:56:20.842Z,8.83
2023-04-28T21:59:24.472Z,8.73
2023-04-28T22:02:29.454Z,8.83
2023-04-28T22:05:32.673Z,9.27
2023-04-28T22:08:36.715Z,9.93
2023-04-28T22:11:40.988Z,11.53
2023-04-28T22:14:44.043Z,9.50
2023-04-28T22:17:48.394Z,8.83
2023-04-28T22:20:51.452Z,8.80
2023-04-28T22:23:56.763Z,9.87
2023-04-28T22:27:05.669Z,9.23
2023-04-28T22:30:10.722Z,9.43
2023-04-28T22:33:15.517Z,11.47
2023-04-28T22:36:18.516Z,15.40
2023-04-28T22:39:24.907Z,8.53
2023-04-28T22:42:28.797Z,9.10
2023-04-28T22:45:31.810Z,9.07
2023-04-28T22:48:36.167Z,9.17
2023-04-28T22:51:39.323Z,9.10
2023-04-28T22:54:42.368Z,9.70
2023-04-28T22:57:45.474Z,16.60
2023-04-28T23:00:48.838Z,12.37
2023-04-28T23:03:53.319Z,12.37
2023-04-28T23:06:56.660Z,14.80
2023-04-28T23:09:59.652Z,12.70
2023-04-28T23:13:02.697Z,10.07
2023-04-28T23:16:06.403Z,9.53
2023-04-28T23:19:11.327Z,9.80
2023-04-28T23:22:14.510Z,9.73
2023-04-28T23:25:17.709Z,10.00
2023-04-28T23:28:20.886Z,9.23
2023-04-28T23:31:24.453Z,8.50
2023-04-28T23:34:29.225Z,9.03
2023-04-28T23:37:32.220Z,11.10
2023-04-28T23:40:35.255Z,10.47
2023-04-28T23:43:38.261Z,13.53
2023-04-28T23:46:41.334Z,12.50
2023-04-28T23:49:45.633Z,13.53
2023-04-28T23:52:48.824Z,10.97
2023-04-28T23:55:54.439Z,11.23
2023-04-28T23:58:57.429Z,12.53
